Time;durP1;ratioP1;P1;durP2;ratioP2;P2;SDS_P1;SDS_P2;PMS_P1;PMS_P2;Temp;Humidity;BMP_temperature;BMP_pressure;BME280_temperature;BME280_humidity;BME280_pressure;Samples;Min_cycle;Max_cycle;Signal;HPM_P1;HPM_P2
2023/08/25 00:02:16;;;;;;;8.45;2.08;;;;;;;;;;4987935;28;20459;-63
2023/08/25 00:04:48;;;;;;;3.47;1.58;;;;;;;;;;4947806;28;1179160;-62
2023/08/25 00:07:17;;;;;;;4.03;1.73;;;;;;;;;;4992369;28;20073;-62
2023/08/25 00:09:46;;;;;;;6.55;1.88;;;;;;;;;;4989187;28;20085;-65
2023/08/25 00:12:14;;;;;;;8.80;2.13;;;;;;;;;;4989373;28;20089;-64
2023/08/25 00:14:43;;;;;;;5.70;1.70;;;;;;;;;;4989060;28;20097;-63
2023/08/25 00:17:11;;;;;;;4.00;1.88;;;;;;;;;;4992427;28;20088;-63
2023/08/25 00:19:40;;;;;;;7.95;1.80;;;;;;;;;;4989035;28;20046;-63
2023/08/25 00:22:08;;;;;;;4.35;1.65;;;;;;;;;;4991531;28;20065;-61
2023/08/25 00:24:38;;;;;;;5.68;1.48;;;;;;;;;;4989409;28;20637;-62
2023/08/25 00:27:06;;;;;;;7.80;1.55;;;;;;;;;;4989654;28;20047;-63
2023/08/25 00:29:35;;;;;;;6.35;1.63;;;;;;;;;;4989335;28;20046;-62
2023/08/25 00:32:03;;;;;;;6.97;1.65;;;;;;;;;;4989127;28;20058;-62
2023/08/25 00:34:32;;;;;;;3.40;1.40;;;;;;;;;;4989487;28;20547;-64
2023/08/25 00:37:01;;;;;;;3.28;1.38;;;;;;;;;;4998139;28;20140;-65
2023/08/25 00:39:32;;;;;;;7.80;1.92;;;;;;;;;;4978800;28;20151;-63
2023/08/25 00:42:02;;;;;;;4.65;1.70;;;;;;;;;;4987299;28;20050;-63
2023/08/25 00:44:30;;;;;;;6.57;1.90;;;;;;;;;;4988820;28;20577;-64
2023/08/25 00:46:59;;;;;;;5.68;1.92;;;;;;;;;;4997827;28;20046;-65
2023/08/25 00:49:28;;;;;;;5.25;1.63;;;;;;;;;;4998050;28;20050;-65
2023/08/25 00:51:56;;;;;;;4.22;1.42;;;;;;;;;;4987733;28;20873;-64
2023/08/25 00:54:27;;;;;;;5.18;1.65;;;;;;;;;;4997142;28;20096;-65
2023/08/25 00:56:56;;;;;;;5.57;1.48;;;;;;;;;;4999469;28;20431;-63
2023/08/25 00:59:26;;;;;;;5.20;1.63;;;;;;;;;;5003298;28;20108;-64
2023/08/25 01:01:55;;;;;;;8.38;1.55;;;;;;;;;;4973675;28;20500;-64
2023/08/25 01:04:24;;;;;;;3.63;1.60;;;;;;;;;;4981907;28;20057;-64
2023/08/25 01:06:54;;;;;;;3.80;1.77;;;;;;;;;;4988760;28;20046;-64
2023/08/25 01:09:23;;;;;;;5.38;1.40;;;;;;;;;;4988716;28;20051;-65
2023/08/25 01:11:56;;;;;;;8.30;1.73;;;;;;;;;;4988448;28;20113;-64
2023/08/25 01:14:30;;;;;;;5.53;1.67;;;;;;;;;;4985696;28;20573;-64
2023/08/25 01:17:04;;;;;;;6.47;1.57;;;;;;;;;;4992871;28;20065;-68
2023/08/25 01:20:06;;;;;;;4.82;1.75;;;;;;;;;;4993113;28;20413;-64
2023/08/25 01:22:39;;;;;;;6.80;1.58;;;;;;;;;;4947660;28;20213;-64
2023/08/25 01:25:26;;;;;;;3.78;1.52;;;;;;;;;;4977126;28;20051;-64
2023/08/25 01:27:56;;;;;;;4.85;1.80;;;;;;;;;;4991576;28;20043;-64
2023/08/25 01:30:24;;;;;;;4.80;1.35;;;;;;;;;;4995919;28;20077;-64
2023/08/25 01:32:52;;;;;;;6.28;1.60;;;;;;;;;;4998232;28;20105;-63
2023/08/25 01:35:24;;;;;;;4.72;1.40;;;;;;;;;;4992542;28;20057;-64
2023/08/25 01:37:59;;;;;;;5.80;1.73;;;;;;;;;;4986458;28;20074;-64
2023/08/25 01:40:35;;;;;;;5.43;1.60;;;;;;;;;;4995091;28;20302;-65
2023/08/25 01:43:04;;;;;;;7.38;1.85;;;;;;;;;;4991853;28;20050;-65
2023/08/25 01:45:32;;;;;;;4.88;1.65;;;;;;;;;;4992265;28;20053;-63
2023/08/25 01:48:01;;;;;;;4.22;1.60;;;;;;;;;;4992680;28;20047;-64
2023/08/25 01:50:29;;;;;;;5.05;1.52;;;;;;;;;;4991652;28;20038;-63
2023/08/25 01:52:58;;;;;;;6.70;1.73;;;;;;;;;;4992509;28;20140;-64
2023/08/25 01:55:26;;;;;;;5.78;1.52;;;;;;;;;;4997819;28;20054;-64
2023/08/25 01:57:56;;;;;;;6.22;1.58;;;;;;;;;;4991390;28;20105;-64
2023/08/25 02:00:25;;;;;;;2.67;1.20;;;;;;;;;;4991590;28;20479;-63
2023/08/25 02:02:53;;;;;;;7.32;1.50;;;;;;;;;;4991938;28;20148;-61
2023/08/25 02:05:22;;;;;;;2.78;1.75;;;;;;;;;;4991952;28;20050;-61
2023/08/25 02:07:50;;;;;;;4.85;1.55;;;;;;;;;;4992743;28;20053;-63
2023/08/25 02:10:19;;;;;;;9.73;1.98;;;;;;;;;;5002274;28;20105;-64
2023/08/25 02:12:48;;;;;;;4.85;1.40;;;;;;;;;;4991119;28;20066;-63
2023/08/25 02:15:18;;;;;;;4.70;1.38;;;;;;;;;;4991835;28;20495;-62
2023/08/25 02:17:46;;;;;;;6.85;2.88;;;;;;;;;;4991545;28;20046;-61
2023/08/25 02:20:14;;;;;;;3.03;1.38;;;;;;;;;;4992683;28;20126;-61
2023/08/25 02:22:43;;;;;;;5.65;1.60;;;;;;;;;;4993425;28;20097;-63
2023/08/25 02:25:11;;;;;;;3.75;1.58;;;;;;;;;;4990891;28;20140;-62
2023/08/25 02:27:39;;;;;;;5.35;1.80;;;;;;;;;;4991426;28;20082;-62
2023/08/25 02:30:08;;;;;;;3.50;1.65;;;;;;;;;;4990228;28;20442;-61
2023/08/25 02:32:38;;;;;;;4.18;1.25;;;;;;;;;;4991604;28;20138;-60
2023/08/25 02:35:07;;;;;;;2.65;1.40;;;;;;;;;;4991228;28;20056;-61
2023/08/25 02:37:35;;;;;;;3.90;1.45;;;;;;;;;;4985173;28;20078;-61
2023/08/25 02:40:04;;;;;;;5.82;1.58;;;;;;;;;;4984243;28;20533;-62
2023/08/25 02:42:32;;;;;;;6.78;2.00;;;;;;;;;;4991890;28;20086;-60
2023/08/25 02:45:01;;;;;;;5.15;1.55;;;;;;;;;;4995303;28;20049;-61
2023/08/25 02:47:31;;;;;;;3.30;1.55;;;;;;;;;;4991325;28;20047;-61
2023/08/25 02:50:02;;;;;;;5.57;1.35;;;;;;;;;;4990325;28;20467;-61
2023/08/25 02:52:31;;;;;;;3.95;1.20;;;;;;;;;;4990988;28;20194;-60
2023/08/25 02:54:59;;;;;;;3.75;1.35;;;;;;;;;;5004891;28;20058;-59
2023/08/25 02:57:27;;;;;;;4.70;1.60;;;;;;;;;;4991248;28;20086;-61
2023/08/25 02:59:56;;;;;;;4.53;1.63;;;;;;;;;;4989730;28;20050;-60
2023/08/25 03:02:24;;;;;;;2.67;1.60;;;;;;;;;;4990787;28;20146;-60
2023/08/25 03:04:52;;;;;;;8.65;1.40;;;;;;;;;;4990180;28;20081;-61
2023/08/25 03:07:22;;;;;;;2.63;1.20;;;;;;;;;;4996141;28;20050;-61
2023/08/25 03:09:51;;;;;;;4.43;1.02;;;;;;;;;;5002510;28;20050;-59
2023/08/25 03:12:19;;;;;;;7.25;1.40;;;;;;;;;;4990547;28;20058;-61
2023/08/25 03:14:47;;;;;;;3.03;1.13;;;;;;;;;;4991971;28;20042;-61
2023/08/25 03:17:16;;;;;;;3.17;1.42;;;;;;;;;;4990287;28;20050;-61
2023/08/25 03:19:44;;;;;;;2.83;1.00;;;;;;;;;;4989918;28;20096;-61
2023/08/25 03:22:12;;;;;;;1.88;1.40;;;;;;;;;;4990977;28;20078;-60
2023/08/25 03:24:42;;;;;;;4.85;1.20;;;;;;;;;;5002536;28;20062;-61
2023/08/25 03:27:10;;;;;;;2.45;1.35;;;;;;;;;;4989562;28;20537;-60
2023/08/25 03:29:39;;;;;;;11.98;1.50;;;;;;;;;;4988415;28;20440;-61
2023/08/25 03:32:08;;;;;;;10.07;1.25;;;;;;;;;;4994741;28;20115;-60
2023/08/25 03:34:36;;;;;;;3.35;1.30;;;;;;;;;;4990328;28;20055;-59
2023/08/25 03:37:05;;;;;;;2.05;1.15;;;;;;;;;;4994659;28;20135;-61
2023/08/25 03:39:34;;;;;;;2.25;0.93;;;;;;;;;;4980032;28;20319;-60
2023/08/25 03:42:04;;;;;;;4.10;1.38;;;;;;;;;;4989462;28;20097;-61
2023/08/25 03:44:32;;;;;;;2.72;1.02;;;;;;;;;;4989183;28;20557;-60
2023/08/25 03:47:01;;;;;;;3.03;1.08;;;;;;;;;;4990002;28;20050;-63
2023/08/25 03:49:30;;;;;;;2.05;1.00;;;;;;;;;;4990650;28;20504;-62
2023/08/25 03:51:59;;;;;;;4.03;1.27;;;;;;;;;;4989274;28;20471;-61
2023/08/25 03:54:30;;;;;;;5.15;1.02;;;;;;;;;;4998155;28;20121;-61
2023/08/25 03:56:58;;;;;;;3.05;1.40;;;;;;;;;;4989939;28;20061;-61
2023/08/25 03:59:30;;;;;;;3.40;1.15;;;;;;;;;;4989844;28;20050;-60
2023/08/25 04:01:59;;;;;;;2.80;1.20;;;;;;;;;;4989345;28;20515;-60
2023/08/25 04:04:32;;;;;;;3.35;1.10;;;;;;;;;;4989487;28;20061;-62
2023/08/25 04:07:00;;;;;;;6.72;1.25;;;;;;;;;;4989602;28;20077;-62
2023/08/25 04:09:29;;;;;;;2.33;0.98;;;;;;;;;;5002754;28;20053;-64
2023/08/25 04:11:57;;;;;;;5.97;1.17;;;;;;;;;;4988428;28;20427;-61
2023/08/25 04:14:25;;;;;;;4.28;0.95;;;;;;;;;;4989672;28;20077;-62
2023/08/25 04:16:55;;;;;;;3.53;1.23;;;;;;;;;;4987867;28;20058;-64
2023/08/25 04:19:23;;;;;;;8.55;1.27;;;;;;;;;;4989531;28;20047;-62
2023/08/25 04:21:52;;;;;;;2.72;1.13;;;;;;;;;;4993551;28;20144;-62
2023/08/25 04:24:20;;;;;;;2.03;1.00;;;;;;;;;;4991967;28;20046;-62
2023/08/25 04:26:48;;;;;;;1.95;1.10;;;;;;;;;;4989383;28;20082;-63
2023/08/25 04:29:17;;;;;;;2.67;1.05;;;;;;;;;;4989423;28;20050;-62
2023/08/25 04:31:45;;;;;;;1.92;1.40;;;;;;;;;;4988544;28;20558;-65
2023/08/25 04:34:15;;;;;;;10.52;1.17;;;;;;;;;;4990083;28;20158;-63
2023/08/25 04:36:45;;;;;;;4.10;1.52;;;;;;;;;;4989496;28;20388;-62
2023/08/25 04:39:14;;;;;;;3.72;1.50;;;;;;;;;;4976366;28;20447;-63
2023/08/25 04:41:42;;;;;;;6.40;1.20;;;;;;;;;;4996279;28;20069;-63
2023/08/25 04:44:10;;;;;;;2.15;1.23;;;;;;;;;;4989290;28;20716;-63
2023/08/25 04:46:39;;;;;;;2.70;1.10;;;;;;;;;;4988408;28;20434;-62
2023/08/25 04:49:08;;;;;;;6.07;1.25;;;;;;;;;;4989225;28;20054;-63
2023/08/25 04:51:39;;;;;;;2.70;1.20;;;;;;;;;;4990054;28;20864;-62
2023/08/25 04:54:07;;;;;;;5.45;1.27;;;;;;;;;;4990565;28;20057;-63
2023/08/25 04:56:36;;;;;;;7.43;1.20;;;;;;;;;;4988805;28;20050;-61
2023/08/25 04:59:04;;;;;;;3.38;1.20;;;;;;;;;;4989268;28;20443;-61
2023/08/25 05:01:32;;;;;;;1.42;0.95;;;;;;;;;;4988561;28;20050;-63
2023/08/25 05:04:01;;;;;;;4.15;1.08;;;;;;;;;;4979561;28;20061;-62
2023/08/25 05:06:29;;;;;;;4.75;1.30;;;;;;;;;;4988954;28;20562;-62
2023/08/25 05:08:59;;;;;;;9.07;1.58;;;;;;;;;;4999064;28;20081;-62
2023/08/25 05:11:27;;;;;;;3.55;1.65;;;;;;;;;;4990915;28;20046;-63
2023/08/25 05:13:56;;;;;;;4.50;1.35;;;;;;;;;;4993789;28;20488;-63
2023/08/25 05:16:24;;;;;;;3.33;1.67;;;;;;;;;;4982148;28;20054;-62
2023/08/25 05:18:52;;;;;;;2.58;1.27;;;;;;;;;;4989533;28;20046;-62
2023/08/25 05:21:21;;;;;;;5.65;1.30;;;;;;;;;;4988833;28;20113;-63
2023/08/25 05:23:53;;;;;;;2.13;1.15;;;;;;;;;;4990768;28;20496;-63
2023/08/25 05:26:22;;;;;;;1.95;1.02;;;;;;;;;;4989393;28;20058;-63
2023/08/25 05:28:51;;;;;;;3.67;1.27;;;;;;;;;;4994980;28;20342;-63
2023/08/25 05:31:19;;;;;;;5.93;1.15;;;;;;;;;;4987861;28;20050;-62
2023/08/25 05:33:48;;;;;;;4.72;1.30;;;;;;;;;;4999315;28;20053;-65
2023/08/25 05:36:16;;;;;;;5.18;1.17;;;;;;;;;;4998139;28;20054;-64
2023/08/25 05:38:44;;;;;;;3.65;1.20;;;;;;;;;;4975450;28;20055;-65
2023/08/25 05:41:13;;;;;;;2.00;1.10;;;;;;;;;;4988302;28;20047;-63
2023/08/25 05:43:42;;;;;;;2.38;1.42;;;;;;;;;;4996962;28;20078;-65
2023/08/25 05:46:11;;;;;;;6.85;1.30;;;;;;;;;;4988546;28;20128;-64
2023/08/25 05:48:40;;;;;;;4.57;1.52;;;;;;;;;;4994250;28;20443;-64
2023/08/25 05:51:08;;;;;;;6.90;1.48;;;;;;;;;;4996635;28;20047;-65
2023/08/25 05:53:36;;;;;;;2.08;1.45;;;;;;;;;;4995878;28;20050;-65
2023/08/25 05:56:05;;;;;;;2.85;1.45;;;;;;;;;;4996482;28;20482;-64
2023/08/25 05:58:34;;;;;;;2.30;1.30;;;;;;;;;;4988125;28;20503;-66
2023/08/25 06:01:04;;;;;;;2.92;1.15;;;;;;;;;;4990961;28;20120;-65
2023/08/25 06:03:33;;;;;;;2.55;1.08;;;;;;;;;;4995118;28;20163;-65
2023/08/25 06:06:01;;;;;;;4.20;1.52;;;;;;;;;;4992275;28;20073;-68
2023/08/25 06:08:30;;;;;;;2.38;1.30;;;;;;;;;;4985553;28;20096;-64
2023/08/25 06:10:58;;;;;;;5.65;1.50;;;;;;;;;;4996664;28;20393;-65
2023/08/25 06:13:28;;;;;;;7.57;1.45;;;;;;;;;;4993690;28;20085;-65
2023/08/25 06:15:56;;;;;;;1.40;1.15;;;;;;;;;;4991962;28;20109;-65
2023/08/25 06:18:26;;;;;;;4.65;1.55;;;;;;;;;;4991167;28;20057;-65
2023/08/25 06:20:55;;;;;;;6.15;1.60;;;;;;;;;;4991340;28;20491;-65
2023/08/25 06:23:23;;;;;;;4.78;1.42;;;;;;;;;;4999281;28;20120;-66
2023/08/25 06:25:52;;;;;;;2.17;1.30;;;;;;;;;;4994174;28;20082;-64
2023/08/25 06:28:20;;;;;;;3.83;1.10;;;;;;;;;;4994136;28;20082;-66
2023/08/25 06:30:50;;;;;;;3.28;1.60;;;;;;;;;;4990893;28;20723;-66
2023/08/25 06:33:20;;;;;;;4.55;1.65;;;;;;;;;;4994838;28;20379;-67
2023/08/25 06:35:50;;;;;;;3.40;1.83;;;;;;;;;;4992008;28;20121;-66
2023/08/25 06:38:21;;;;;;;7.72;3.20;;;;;;;;;;4978860;28;20070;-66
2023/08/25 06:40:49;;;;;;;4.10;2.78;;;;;;;;;;4990657;28;20073;-65
2023/08/25 06:43:17;;;;;;;3.65;2.15;;;;;;;;;;4993728;28;20121;-65
2023/08/25 06:45:46;;;;;;;5.30;2.10;;;;;;;;;;4990420;28;20050;-64
2023/08/25 06:48:14;;;;;;;3.60;2.38;;;;;;;;;;4989647;28;20471;-65
2023/08/25 06:50:43;;;;;;;5.82;2.05;;;;;;;;;;4990511;28;20423;-65
2023/08/25 06:53:13;;;;;;;2.35;1.58;;;;;;;;;;4992013;28;20480;-66
2023/08/25 06:55:41;;;;;;;5.50;1.90;;;;;;;;;;4992434;28;20054;-66
2023/08/25 06:58:09;;;;;;;2.95;1.63;;;;;;;;;;4990960;28;20112;-65
2023/08/25 07:00:38;;;;;;;3.45;1.70;;;;;;;;;;4990266;28;20080;-66
2023/08/25 07:03:07;;;;;;;3.97;1.85;;;;;;;;;;4997597;28;20132;-64
2023/08/25 07:05:38;;;;;;;6.22;1.63;;;;;;;;;;4992776;28;20054;-66
2023/08/25 07:08:06;;;;;;;3.85;1.63;;;;;;;;;;4992010;28;20053;-65
2023/08/25 07:10:36;;;;;;;2.17;1.35;;;;;;;;;;4989724;28;20108;-65
2023/08/25 07:13:05;;;;;;;5.47;1.70;;;;;;;;;;4989634;28;20071;-65
2023/08/25 07:15:34;;;;;;;4.72;1.38;;;;;;;;;;4996676;28;20054;-65
2023/08/25 07:18:03;;;;;;;5.85;1.65;;;;;;;;;;4988906;28;20047;-65
2023/08/25 07:20:32;;;;;;;3.03;1.58;;;;;;;;;;4990285;28;20053;-65
2023/08/25 07:23:01;;;;;;;2.30;1.38;;;;;;;;;;4991948;28;20116;-66
2023/08/25 07:25:29;;;;;;;2.15;1.50;;;;;;;;;;4992634;28;20047;-66
2023/08/25 07:27:59;;;;;;;56.63;4.05;;;;;;;;;;4990208;28;20046;-66
2023/08/25 07:30:27;;;;;;;8.00;1.42;;;;;;;;;;4989298;28;20492;-66
2023/08/25 07:32:55;;;;;;;4.18;1.55;;;;;;;;;;4989742;28;20057;-65
2023/08/25 07:35:24;;;;;;;2.45;1.38;;;;;;;;;;4994987;28;20061;-66
2023/08/25 07:37:54;;;;;;;2.85;1.48;;;;;;;;;;4981532;28;20055;-66
2023/08/25 07:40:23;;;;;;;2.42;1.40;;;;;;;;;;4985719;28;20062;-65
2023/08/25 07:42:52;;;;;;;2.85;1.15;;;;;;;;;;4991614;28;20089;-65
2023/08/25 07:45:21;;;;;;;2.17;1.20;;;;;;;;;;4993875;28;20475;-65
2023/08/25 07:47:50;;;;;;;2.65;1.30;;;;;;;;;;4989451;28;20069;-66
2023/08/25 07:50:19;;;;;;;1.50;1.33;;;;;;;;;;4993894;28;20069;-66
2023/08/25 07:52:47;;;;;;;3.75;1.80;;;;;;;;;;4987836;28;20073;-64
2023/08/25 07:55:16;;;;;;;2.50;1.15;;;;;;;;;;4991094;28;20128;-65
2023/08/25 07:57:46;;;;;;;2.38;1.50;;;;;;;;;;4989933;28;20053;-65
2023/08/25 08:00:15;;;;;;;3.65;1.35;;;;;;;;;;4986757;28;20051;-65
2023/08/25 08:02:47;;;;;;;4.97;1.50;;;;;;;;;;4989337;28;20182;-66
2023/08/25 08:05:17;;;;;;;2.75;1.38;;;;;;;;;;4991518;28;20065;-65
2023/08/25 08:07:45;;;;;;;1.73;1.13;;;;;;;;;;5000145;28;20060;-65
2023/08/25 08:10:14;;;;;;;4.82;1.52;;;;;;;;;;5000917;28;20042;-65
2023/08/25 08:12:46;;;;;;;3.95;1.80;;;;;;;;;;4989552;28;20046;-66
2023/08/25 08:15:15;;;;;;;3.15;1.77;;;;;;;;;;4998044;28;20053;-66
2023/08/25 08:17:43;;;;;;;6.40;1.88;;;;;;;;;;4992881;28;20078;-65
2023/08/25 08:20:13;;;;;;;2.92;1.75;;;;;;;;;;4994781;28;20113;-66
2023/08/25 08:22:42;;;;;;;3.25;1.70;;;;;;;;;;4989135;28;20374;-65
2023/08/25 08:25:11;;;;;;;4.15;1.45;;;;;;;;;;4997356;28;20038;-65
2023/08/25 08:27:40;;;;;;;4.05;1.50;;;;;;;;;;4990175;28;20050;-65
2023/08/25 08:30:10;;;;;;;5.78;1.80;;;;;;;;;;4987869;28;20050;-66
2023/08/25 08:32:39;;;;;;;3.17;1.50;;;;;;;;;;4988569;28;20244;-65
2023/08/25 08:35:08;;;;;;;4.22;1.73;;;;;;;;;;4988434;28;20362;-66
2023/08/25 08:37:38;;;;;;;3.40;1.60;;;;;;;;;;4990459;28;20294;-66
2023/08/25 08:40:08;;;;;;;2.95;1.67;;;;;;;;;;4988441;28;20502;-65
2023/08/25 08:42:37;;;;;;;2.92;1.58;;;;;;;;;;4989117;28;20097;-65
2023/08/25 08:45:08;;;;;;;4.18;1.80;;;;;;;;;;4993180;28;20483;-66
2023/08/25 08:47:37;;;;;;;3.15;1.42;;;;;;;;;;4988768;28;20458;-65
2023/08/25 08:50:07;;;;;;;4.75;2.10;;;;;;;;;;4987231;28;20528;-66
2023/08/25 08:52:36;;;;;;;5.63;1.58;;;;;;;;;;4989134;28;20054;-66
2023/08/25 08:55:07;;;;;;;2.55;1.50;;;;;;;;;;4999033;28;20069;-64
2023/08/25 08:57:35;;;;;;;4.35;1.40;;;;;;;;;;4990774;28;20053;-65
2023/08/25 09:00:12;;;;;;;2.00;1.52;;;;;;;;;;4988055;28;20070;-65
2023/08/25 09:02:43;;;;;;;6.75;1.35;;;;;;;;;;4988194;28;20124;-64
2023/08/25 09:05:14;;;;;;;2.58;1.70;;;;;;;;;;4988317;28;20056;-64
2023/08/25 09:07:43;;;;;;;2.75;1.92;;;;;;;;;;4988457;28;20054;-62
2023/08/25 09:10:13;;;;;;;3.25;2.00;;;;;;;;;;4992162;28;20396;-65
2023/08/25 09:12:42;;;;;;;2.22;1.67;;;;;;;;;;4989218;28;20418;-65
2023/08/25 09:15:10;;;;;;;3.60;1.90;;;;;;;;;;4988207;28;20458;-65
2023/08/25 09:17:40;;;;;;;2.75;1.95;;;;;;;;;;4988117;28;20074;-65
2023/08/25 09:20:10;;;;;;;3.10;1.85;;;;;;;;;;4991610;28;20078;-63
2023/08/25 09:22:38;;;;;;;4.78;2.03;;;;;;;;;;4988684;28;20055;-65
2023/08/25 09:25:07;;;;;;;4.25;2.15;;;;;;;;;;4988760;28;20046;-65
2023/08/25 09:27:37;;;;;;;3.53;2.13;;;;;;;;;;4986793;28;20558;-64
2023/08/25 09:30:06;;;;;;;2.70;2.10;;;;;;;;;;4997989;28;20085;-65
2023/08/25 09:32:35;;;;;;;6.43;2.60;;;;;;;;;;4989494;28;20074;-64
2023/08/25 09:35:13;;;;;;;3.65;2.17;;;;;;;;;;4990180;28;20054;-64
2023/08/25 09:37:42;;;;;;;4.18;2.00;;;;;;;;;;4995250;28;20080;-63
2023/08/25 09:40:12;;;;;;;5.95;2.13;;;;;;;;;;4993979;28;20057;-65
2023/08/25 09:42:42;;;;;;;2.53;1.83;;;;;;;;;;4992969;28;20124;-64
2023/08/25 09:45:12;;;;;;;4.22;2.20;;;;;;;;;;4992576;28;20060;-63
2023/08/25 09:47:41;;;;;;;5.10;2.22;;;;;;;;;;4991707;28;20042;-64
2023/08/25 09:50:15;;;;;;;7.60;2.28;;;;;;;;;;4993583;28;20050;-64
2023/08/25 09:52:45;;;;;;;5.10;2.42;;;;;;;;;;5005170;28;20057;-65
2023/08/25 09:55:14;;;;;;;3.55;2.50;;;;;;;;;;4994673;28;20073;-64
2023/08/25 09:57:45;;;;;;;2.95;2.30;;;;;;;;;;4992308;28;20058;-61
2023/08/25 10:00:14;;;;;;;3.22;1.92;;;;;;;;;;4991805;28;20073;-63
2023/08/25 10:02:44;;;;;;;6.28;2.38;;;;;;;;;;4999254;28;20396;-65
2023/08/25 10:05:13;;;;;;;6.47;2.50;;;;;;;;;;4992357;28;20138;-63
2023/08/25 10:07:42;;;;;;;4.82;2.25;;;;;;;;;;4992413;28;20050;-63
2023/08/25 10:10:11;;;;;;;2.53;2.13;;;;;;;;;;4991577;28;20510;-62
2023/08/25 10:12:39;;;;;;;6.80;2.53;;;;;;;;;;4993997;28;20524;-63
2023/08/25 10:15:11;;;;;;;4.03;2.22;;;;;;;;;;4991901;28;20385;-63
2023/08/25 10:17:41;;;;;;;4.53;2.17;;;;;;;;;;4991382;28;20550;-63
2023/08/25 10:20:11;;;;;;;4.22;2.40;;;;;;;;;;4991370;28;20120;-63
2023/08/25 10:22:42;;;;;;;3.25;1.88;;;;;;;;;;5001241;28;20562;-63
2023/08/25 10:25:11;;;;;;;4.35;2.40;;;;;;;;;;4997193;28;20388;-62
2023/08/25 10:27:39;;;;;;;4.88;2.33;;;;;;;;;;4990946;28;20539;-65
2023/08/25 10:30:10;;;;;;;3.55;1.92;;;;;;;;;;4990692;28;20082;-62
2023/08/25 10:32:51;;;;;;;2.92;1.95;;;;;;;;;;4994236;28;20412;-64
2023/08/25 10:35:34;;;;;;;3.60;2.03;;;;;;;;;;4991323;28;20050;-62
2023/08/25 10:38:03;;;;;;;5.97;1.80;;;;;;;;;;4988445;28;20105;-63
2023/08/25 10:40:41;;;;;;;3.17;2.25;;;;;;;;;;4992488;28;20136;-63
2023/08/25 10:43:09;;;;;;;3.22;2.00;;;;;;;;;;4991614;28;20553;-63
2023/08/25 10:45:39;;;;;;;2.75;1.90;;;;;;;;;;4993280;28;20117;-64
2023/08/25 10:48:07;;;;;;;7.78;1.95;;;;;;;;;;4990817;28;20054;-64
2023/08/25 10:50:36;;;;;;;2.83;1.70;;;;;;;;;;4990415;28;20046;-65
2023/08/25 10:53:04;;;;;;;2.35;1.60;;;;;;;;;;4992244;28;20046;-64
2023/08/25 10:55:33;;;;;;;3.88;1.50;;;;;;;;;;4993731;28;20130;-63
2023/08/25 10:58:03;;;;;;;4.90;1.80;;;;;;;;;;4991003;28;20058;-65
2023/08/25 11:00:33;;;;;;;2.28;1.42;;;;;;;;;;4990798;28;20049;-64
2023/08/25 11:03:03;;;;;;;3.30;1.80;;;;;;;;;;4991288;28;20054;-64
2023/08/25 11:05:38;;;;;;;3.15;1.67;;;;;;;;;;4991449;28;20137;-66
2023/08/25 11:08:23;;;;;;;2.40;1.58;;;;;;;;;;4989567;28;20542;-64
2023/08/25 11:10:51;;;;;;;;;;;;;;;;;;4991156;28;20478;-64
2023/08/25 11:13:21;;;;;;;3.35;1.92;;;;;;;;;;4990899;28;19980;-64
2023/08/25 11:15:49;;;;;;;3.00;1.65;;;;;;;;;;4990077;28;20132;-64
2023/08/25 11:18:20;;;;;;;5.18;1.85;;;;;;;;;;4989780;28;20074;-64
2023/08/25 11:20:48;;;;;;;2.65;1.75;;;;;;;;;;4990182;28;20108;-64
2023/08/25 11:23:16;;;;;;;4.18;2.00;;;;;;;;;;4990897;28;20374;-65
2023/08/25 11:25:48;;;;;;;2.03;1.35;;;;;;;;;;4989768;28;20617;-67
2023/08/25 11:28:19;;;;;;;2.45;1.48;;;;;;;;;;4990055;28;20500;-64
2023/08/25 11:30:48;;;;;;;4.45;1.83;;;;;;;;;;4989222;28;20412;-64
2023/08/25 11:33:21;;;;;;;1.95;1.60;;;;;;;;;;4990024;28;20058;-64
2023/08/25 11:35:49;;;;;;;4.15;1.90;;;;;;;;;;4989743;28;20140;-64
2023/08/25 11:38:18;;;;;;;2.97;1.50;;;;;;;;;;4986936;28;20129;-64
2023/08/25 11:40:46;;;;;;;4.05;1.80;;;;;;;;;;4989408;28;20061;-64
2023/08/25 11:43:15;;;;;;;1.90;1.55;;;;;;;;;;4991611;28;20136;-63
2023/08/25 11:45:45;;;;;;;2.70;1.73;;;;;;;;;;4977299;28;20082;-63
2023/08/25 11:48:14;;;;;;;4.25;1.80;;;;;;;;;;4990062;28;20116;-63
2023/08/25 11:50:44;;;;;;;4.63;1.88;;;;;;;;;;4988093;28;20105;-64
2023/08/25 11:53:12;;;;;;;2.67;1.80;;;;;;;;;;4988011;28;20491;-63
2023/08/25 11:55:42;;;;;;;3.47;2.00;;;;;;;;;;4994572;28;20069;-63
2023/08/25 11:58:11;;;;;;;3.72;1.98;;;;;;;;;;4988296;28;20053;-64
2023/08/25 12:00:40;;;;;;;4.65;1.80;;;;;;;;;;4991719;28;20053;-65
2023/08/25 12:03:09;;;;;;;4.50;2.22;;;;;;;;;;4990913;28;20046;-65
2023/08/25 12:05:37;;;;;;;6.68;1.52;;;;;;;;;;4989038;28;20081;-64
2023/08/25 12:08:07;;;;;;;4.45;1.60;;;;;;;;;;4992125;28;20042;-62
2023/08/25 12:10:36;;;;;;;5.68;2.13;;;;;;;;;;4988252;28;20051;-64
2023/08/25 12:13:05;;;;;;;2.80;2.03;;;;;;;;;;4989297;28;20054;-64
2023/08/25 12:15:41;;;;;;;3.55;1.95;;;;;;;;;;4989107;28;20121;-64
2023/08/25 12:18:13;;;;;;;6.47;2.20;;;;;;;;;;4989628;28;20129;-64
2023/08/25 12:20:44;;;;;;;2.38;1.65;;;;;;;;;;4988827;28;20169;-64
2023/08/25 12:23:14;;;;;;;3.00;1.92;;;;;;;;;;4989278;28;20487;-64
2023/08/25 12:25:43;;;;;;;1.98;1.73;;;;;;;;;;4989132;28;20070;-65
2023/08/25 12:28:12;;;;;;;4.47;1.83;;;;;;;;;;4989372;28;20070;-64
2023/08/25 12:30:40;;;;;;;6.30;1.77;;;;;;;;;;4990853;28;20046;-65
2023/08/25 12:33:09;;;;;;;3.55;1.67;;;;;;;;;;4997976;28;20443;-64
2023/08/25 12:35:38;;;;;;;3.22;1.77;;;;;;;;;;4991576;28;20366;-64
2023/08/25 12:38:06;;;;;;;4.80;1.90;;;;;;;;;;4988209;28;20302;-64
2023/08/25 12:40:36;;;;;;;2.35;1.98;;;;;;;;;;4988442;28;20054;-64
2023/08/25 12:43:05;;;;;;;5.60;1.90;;;;;;;;;;4992584;28;20057;-64
2023/08/25 12:45:33;;;;;;;3.67;2.50;;;;;;;;;;4989528;28;20078;-64
2023/08/25 12:48:02;;;;;;;2.92;1.83;;;;;;;;;;4988702;28;20042;-65
2023/08/25 12:50:30;;;;;;;3.25;1.65;;;;;;;;;;4987786;28;20046;-65
2023/08/25 12:52:59;;;;;;;8.20;1.70;;;;;;;;;;4987688;28;20050;-64
2023/08/25 12:55:27;;;;;;;2.08;1.60;;;;;;;;;;4992420;28;20174;-64
2023/08/25 12:57:57;;;;;;;5.97;2.40;;;;;;;;;;4994886;28;20136;-65
2023/08/25 13:00:26;;;;;;;2.65;1.98;;;;;;;;;;4988009;28;20091;-64
2023/08/25 13:02:54;;;;;;;2.80;1.88;;;;;;;;;;4988485;28;20069;-65
2023/08/25 13:05:23;;;;;;;5.20;1.90;;;;;;;;;;4992227;28;20042;-65
2023/08/25 13:07:52;;;;;;;4.50;1.90;;;;;;;;;;4987125;28;20058;-64
2023/08/25 13:10:21;;;;;;;2.60;1.80;;;;;;;;;;4991365;28;20049;-65
2023/08/25 13:12:49;;;;;;;5.03;2.00;;;;;;;;;;4993557;28;20529;-65
2023/08/25 13:15:19;;;;;;;2.85;1.65;;;;;;;;;;4995319;28;20065;-65
2023/08/25 13:17:49;;;;;;;2.47;1.80;;;;;;;;;;4992122;28;20574;-66
2023/08/25 13:20:17;;;;;;;3.70;1.92;;;;;;;;;;4990336;28;20073;-65
2023/08/25 13:22:46;;;;;;;3.13;1.80;;;;;;;;;;4992790;28;20496;-64
2023/08/25 13:25:14;;;;;;;4.35;1.80;;;;;;;;;;4998472;28;20050;-65
2023/08/25 13:27:43;;;;;;;3.55;2.03;;;;;;;;;;4992609;28;20109;-65
2023/08/25 13:30:11;;;;;;;2.63;1.70;;;;;;;;;;5000150;28;20507;-64
2023/08/25 13:32:42;;;;;;;4.35;2.10;;;;;;;;;;4992406;28;20113;-65
2023/08/25 13:35:10;;;;;;;3.28;1.75;;;;;;;;;;4995485;28;20132;-62
2023/08/25 13:37:39;;;;;;;2.88;1.92;;;;;;;;;;4985108;28;20503;-64
2023/08/25 13:40:08;;;;;;;4.35;1.83;;;;;;;;;;4985343;28;20039;-65
2023/08/25 13:42:37;;;;;;;3.45;1.80;;;;;;;;;;4992498;28;20419;-64
2023/08/25 13:45:06;;;;;;;2.58;1.88;;;;;;;;;;4993563;28;20054;-64
2023/08/25 13:47:34;;;;;;;2.72;1.88;;;;;;;;;;4992487;28;20475;-66
2023/08/25 13:50:04;;;;;;;3.22;1.83;;;;;;;;;;4996407;28;20045;-64
2023/08/25 13:52:32;;;;;;;4.95;1.83;;;;;;;;;;4991160;28;20153;-65
2023/08/25 13:55:01;;;;;;;4.82;2.67;;;;;;;;;;4998100;28;20046;-66
2023/08/25 13:57:31;;;;;;;4.97;2.17;;;;;;;;;;4992443;28;20569;-64
2023/08/25 14:00:02;;;;;;;2.45;1.80;;;;;;;;;;4993471;28;20046;-65
2023/08/25 14:02:30;;;;;;;3.38;2.00;;;;;;;;;;4991577;28;20077;-65
2023/08/25 14:04:59;;;;;;;3.80;2.13;;;;;;;;;;4994655;28;20054;-64
2023/08/25 14:07:29;;;;;;;6.68;2.10;;;;;;;;;;4991380;28;20491;-64
2023/08/25 14:09:57;;;;;;;5.65;2.38;;;;;;;;;;5002874;28;20144;-64
2023/08/25 14:12:26;;;;;;;4.93;2.10;;;;;;;;;;4994128;28;20402;-64
2023/08/25 14:14:54;;;;;;;3.75;2.10;;;;;;;;;;4995786;28;20046;-66
2023/08/25 14:17:23;;;;;;;6.65;2.00;;;;;;;;;;4991273;28;20038;-63
2023/08/25 14:19:51;;;;;;;2.97;1.92;;;;;;;;;;4996145;28;20042;-65
2023/08/25 14:22:19;;;;;;;5.32;1.90;;;;;;;;;;4996029;28;20498;-64
2023/08/25 14:24:49;;;;;;;3.03;1.92;;;;;;;;;;4996603;28;20488;-66
2023/08/25 14:27:17;;;;;;;4.38;2.38;;;;;;;;;;4991599;28;20074;-65
2023/08/25 14:29:47;;;;;;;3.17;2.40;;;;;;;;;;4994380;28;20092;-65
2023/08/25 14:32:16;;;;;;;5.03;2.03;;;;;;;;;;4994714;28;20117;-65
2023/08/25 14:34:44;;;;;;;2.53;1.50;;;;;;;;;;4993919;28;20054;-63
2023/08/25 14:37:12;;;;;;;3.33;1.80;;;;;;;;;;4989247;28;20042;-65
2023/08/25 14:39:41;;;;;;;3.30;2.10;;;;;;;;;;4993777;28;20046;-65
2023/08/25 14:42:10;;;;;;;4.53;2.10;;;;;;;;;;4993681;28;20100;-65
2023/08/25 14:44:39;;;;;;;2.95;2.20;;;;;;;;;;4991652;28;20046;-65
2023/08/25 14:47:08;;;;;;;2.50;1.83;;;;;;;;;;4991194;28;20124;-65
2023/08/25 14:49:37;;;;;;;3.67;2.13;;;;;;;;;;4989615;28;20101;-68
2023/08/25 14:52:05;;;;;;;3.28;2.30;;;;;;;;;;4990670;28;20074;-64
2023/08/25 14:54:34;;;;;;;7.80;2.20;;;;;;;;;;4992216;28;20086;-64
2023/08/25 14:57:03;;;;;;;4.10;1.80;;;;;;;;;;4990897;28;20105;-65